Time;durP1;ratioP1;P1;durP2;ratioP2;P2;SDS_P1;SDS_P2;PMS_P1;PMS_P2;Temp;Humidity;BMP_temperature;BMP_pressure;BME280_temperature;BME280_humidity;BME280_pressure;Samples;Min_cycle;Max_cycle;Signal;HPM_P1;HPM_P2
2024/04/07 00:01:18;;;;;;;9.70;4.20;;;;;;;20.08;54.78;100772.81;5222044;28;20029;-78
2024/04/07 00:03:50;;;;;;;8.67;3.83;;;;;;;20.10;54.86;100788.59;5224473;28;20040;-77
2024/04/07 00:06:22;;;;;;;7.47;3.37;;;;;;;20.12;54.64;100792.69;5224033;28;20037;-77
2024/04/07 00:08:55;;;;;;;7.35;3.20;;;;;;;20.15;54.37;100792.31;5221082;28;20034;-77
2024/04/07 00:11:28;;;;;;;;;;;;;;;20.93;51.92;100778.81;5224654;28;20045;-77
2024/04/07 00:14:00;;;;;;;8.68;3.03;;;;;;;20.29;53.33;100781.75;5223436;28;20306;-77
2024/04/07 00:16:31;;;;;;;8.13;2.70;;;;;;;20.29;53.04;100776.44;5223669;28;20044;-77
2024/04/07 00:19:03;;;;;;;6.00;2.17;;;;;;;20.27;53.58;100773.16;5224097;28;20030;-77
2024/04/07 00:21:35;;;;;;;8.43;2.40;;;;;;;20.32;52.88;100786.69;5221835;28;20033;-77
2024/04/07 00:24:07;;;;;;;5.03;2.15;;;;;;;20.29;53.64;100798.53;5223980;28;20040;-78
2024/04/07 00:26:39;;;;;;;7.47;2.27;;;;;;;20.25;54.51;100801.78;5221447;28;21141;-77
2024/04/07 00:29:11;;;;;;;5.63;2.20;;;;;;;20.26;54.65;100798.09;5219566;28;20037;-77
2024/04/07 00:31:43;;;;;;;4.93;2.03;;;;;;;20.26;53.97;100798.91;5217347;28;20041;-77
2024/04/07 00:34:15;;;;;;;8.17;2.47;;;;;;;20.28;54.55;100804.06;5220992;28;20054;-76
2024/04/07 00:36:47;;;;;;;4.82;2.22;;;;;;;20.23;54.62;100819.75;5226538;28;20049;-77
2024/04/07 00:39:19;;;;;;;6.05;1.67;;;;;;;20.28;54.74;100834.13;5223176;28;20037;-77
2024/04/07 00:41:51;;;;;;;7.83;1.80;;;;;;;20.26;54.42;100845.97;5225923;28;20037;-78
2024/04/07 00:44:23;;;;;;;7.20;2.08;;;;;;;20.28;54.22;100855.41;5223505;28;20026;-76
2024/04/07 00:46:55;;;;;;;5.93;1.83;;;;;;;20.25;54.40;100834.53;5224421;28;20029;-77
2024/04/07 00:49:28;;;;;;;7.07;2.07;;;;;;;20.36;53.72;100831.31;5221011;28;20403;-77
2024/04/07 00:52:01;;;;;;;9.02;2.15;;;;;;;20.37;53.90;100835.63;5223802;28;20968;-76
2024/04/07 00:54:33;;;;;;;8.52;2.08;;;;;;;20.37;54.15;100835.63;5227449;28;20219;-77
2024/04/07 00:57:05;;;;;;;6.07;2.10;;;;;;;20.39;54.54;100846.09;5239082;28;20053;-76
2024/04/07 00:59:37;;;;;;;7.13;2.07;;;;;;;20.33;54.63;100874.28;5225802;28;20067;-77
2024/04/07 01:02:11;;;;;;;6.77;1.93;;;;;;;20.27;54.96;100872.41;5226699;28;20034;-78
2024/04/07 01:04:43;;;;;;;6.90;2.25;;;;;;;20.27;55.00;100888.38;5226082;28;20037;-76
2024/04/07 01:07:16;;;;;;;7.35;1.92;;;;;;;20.30;55.60;100905.78;5227657;28;20029;-78
2024/04/07 01:09:49;;;;;;;3.42;1.70;;;;;;;20.25;56.16;100905.53;5230165;28;20046;-77
2024/04/07 01:12:21;;;;;;;9.55;2.05;;;;;;;20.23;55.63;100894.25;5225574;28;20029;-77
2024/04/07 01:14:53;;;;;;;6.28;2.20;;;;;;;20.23;55.98;100899.56;5224465;28;20044;-77
2024/04/07 01:17:25;;;;;;;6.33;1.90;;;;;;;20.19;57.16;100925.72;5225137;28;20402;-77
2024/04/07 01:19:58;;;;;;;5.28;2.10;;;;;;;20.13;56.54;100927.31;5222560;28;20049;-77
2024/04/07 01:22:30;;;;;;;6.22;1.70;;;;;;;19.97;57.17;100911.63;5225209;28;20143;-77
2024/04/07 01:25:02;;;;;;;4.45;1.90;;;;;;;20.02;57.72;100922.53;5225873;28;20487;-77
2024/04/07 01:27:34;;;;;;;5.37;1.70;;;;;;;19.96;58.70;100927.75;5223293;28;20041;-77
2024/04/07 01:30:07;;;;;;;5.07;2.27;;;;;;;19.93;57.86;100936.97;5225087;28;20064;-78
2024/04/07 01:32:42;;;;;;;6.50;1.92;;;;;;;19.90;57.78;100940.81;5223561;28;20048;-78
2024/04/07 01:35:14;;;;;;;4.82;2.10;;;;;;;19.85;58.44;100921.97;5229688;28;20057;-77
2024/04/07 01:37:46;;;;;;;7.20;1.75;;;;;;;19.83;58.50;100915.19;5229490;28;20049;-77
2024/04/07 01:40:18;;;;;;;4.47;1.42;;;;;;;19.86;57.81;100946.72;5227842;28;20033;-78
2024/04/07 01:42:51;;;;;;;5.38;1.73;;;;;;;19.79;58.96;100953.78;5227246;28;20037;-78
2024/04/07 01:45:22;;;;;;;6.07;1.65;;;;;;;19.72;59.02;100947.56;5226650;28;20068;-78
2024/04/07 01:47:54;;;;;;;6.18;1.48;;;;;;;19.66;59.58;100978.34;5225820;28;20040;-77
2024/04/07 01:50:26;;;;;;;5.93;2.00;;;;;;;19.67;58.89;100959.59;5221559;28;20080;-79
2024/04/07 01:52:58;;;;;;;5.00;1.65;;;;;;;19.64;59.81;100980.41;5220838;28;20065;-78
2024/04/07 01:55:30;;;;;;;5.10;1.63;;;;;;;19.57;60.45;100996.22;5221137;28;20065;-78
2024/04/07 01:58:02;;;;;;;5.83;1.70;;;;;;;19.50;60.69;101007.78;5217899;28;20050;-77
2024/04/07 02:00:34;;;;;;;5.90;1.70;;;;;;;19.51;61.11;101020.91;5219931;28;20384;-78
2024/04/07 02:03:06;;;;;;;4.32;1.42;;;;;;;19.40;62.26;101026.69;5223279;28;20046;-77
2024/04/07 02:05:38;;;;;;;4.63;1.55;;;;;;;19.41;62.49;101033.63;5219844;28;20063;-78
2024/04/07 02:08:10;;;;;;;4.90;1.65;;;;;;;19.36;63.25;101049.31;5221887;28;20029;-79
2024/04/07 02:10:52;;;;;;;5.10;1.55;;;;;;;19.48;63.62;101060.31;5220355;28;20037;-78
2024/04/07 02:13:24;;;;;;;5.65;1.42;;;;;;;19.27;63.99;101048.53;5225059;28;20077;-78
2024/04/07 02:15:59;;;;;;;4.93;1.88;;;;;;;19.43;64.51;101060.81;5222235;28;21047;-77
2024/04/07 02:18:31;;;;;;;5.13;1.92;;;;;;;19.18;65.97;101053.13;5219458;28;20034;-78
2024/04/07 02:21:03;;;;;;;5.43;1.63;;;;;;;19.23;66.25;101068.50;5219292;28;20037;-78
2024/04/07 02:23:35;;;;;;;5.60;1.65;;;;;;;19.23;66.55;101068.50;5217466;28;20046;-78
2024/04/07 02:26:07;;;;;;;4.43;1.77;;;;;;;19.20;66.76;101087.47;5223515;28;20416;-79
2024/04/07 02:28:39;;;;;;;5.43;1.63;;;;;;;19.18;67.68;101102.78;5217457;28;20037;-77
2024/04/07 02:31:11;;;;;;;6.17;1.77;;;;;;;19.12;67.84;101106.94;5214902;28;20045;-79
2024/04/07 02:33:46;;;;;;;4.15;1.80;;;;;;;19.09;68.87;101102.03;5218992;28;20231;-78
2024/04/07 02:36:18;;;;;;;5.15;1.65;;;;;;;18.97;68.25;101108.75;5218025;28;20033;-77
2024/04/07 02:38:50;;;;;;;4.25;1.70;;;;;;;18.91;65.10;101096.19;5216275;28;20502;-78
2024/04/07 02:41:22;;;;;;;4.20;1.30;;;;;;;18.88;64.84;101073.47;5218639;28;20045;-79
2024/04/07 02:43:54;;;;;;;4.83;1.40;;;;;;;18.87;64.16;101078.97;5218855;28;20041;-77
2024/04/07 02:49:16;;;;;;;2.53;0.75;;;;;;;18.80;56.98;101064.78;5214964;28;20042;-78
2024/04/07 02:51:48;;;;;;;3.95;0.80;;;;;;;18.81;57.14;101082.34;5217994;28;20404;-78
2024/04/07 02:54:20;;;;;;;2.95;0.80;;;;;;;18.76;57.62;101088.19;5219011;28;20033;-77
2024/04/07 02:56:52;;;;;;;1.75;0.90;;;;;;;18.73;56.76;101093.03;5218190;28;20030;-77
2024/04/07 02:59:24;;;;;;;2.43;0.70;;;;;;;18.76;56.78;101108.59;5214798;28;20049;-78
2024/04/07 03:01:56;;;;;;;3.38;0.70;;;;;;;18.71;57.27;101098.50;5217313;28;20387;-79
2024/04/07 03:04:28;;;;;;;2.50;0.85;;;;;;;18.65;57.50;101099.19;5218706;28;20037;-77
2024/04/07 03:07:00;;;;;;;2.30;0.70;;;;;;;18.57;59.87;101113.34;5218001;28;20035;-78
2024/04/07 03:09:32;;;;;;;2.92;0.55;;;;;;;18.50;57.61;101104.41;5217446;28;20040;-77
2024/04/07 03:12:04;;;;;;;2.13;0.75;;;;;;;18.43;57.90;101092.84;5217194;28;20482;-76
2024/04/07 03:14:36;;;;;;;3.83;0.70;;;;;;;18.44;56.55;101102.47;5215017;28;20034;-77
2024/04/07 03:17:08;;;;;;;2.13;0.52;;;;;;;18.43;56.79;101083.06;5215242;28;20053;-77
2024/04/07 03:19:40;;;;;;;2.57;0.63;;;;;;;18.44;56.99;101089.19;5218439;28;20041;-77
2024/04/07 03:22:12;;;;;;;1.70;0.55;;;;;;;18.47;56.63;101089.66;5217085;28;20292;-78
2024/04/07 03:24:44;;;;;;;4.43;0.68;;;;;;;18.48;55.74;101088.66;5218494;28;20644;-77
2024/04/07 03:27:16;;;;;;;3.35;1.15;;;;;;;18.39;55.29;101094.22;5217812;28;20033;-77
2024/04/07 03:29:48;;;;;;;1.77;0.60;;;;;;;18.38;55.62;101100.53;5220476;28;20407;-78
2024/04/07 03:32:20;;;;;;;1.10;0.40;;;;;;;18.30;55.35;101082.84;5217307;28;20038;-76
2024/04/07 03:34:52;;;;;;;1.38;0.50;;;;;;;18.40;54.75;101099.31;5218040;28;20042;-77
2024/04/07 03:37:24;;;;;;;9.10;1.77;;;;;;;18.40;54.46;101088.72;5216809;28;20044;-77
2024/04/07 03:39:56;;;;;;;1.35;0.45;;;;;;;18.38;55.60;101084.59;5217866;28;20483;-76
2024/04/07 03:42:28;;;;;;;2.13;0.45;;;;;;;18.36;55.14;101058.25;5217068;28;20033;-76
2024/04/07 03:45:00;;;;;;;1.25;0.40;;;;;;;18.38;55.02;101063.38;5218400;28;20037;-77
2024/04/07 03:47:32;;;;;;;1.73;0.60;;;;;;;18.32;54.30;101066.72;5215589;28;20037;-77
2024/04/07 03:50:05;;;;;;;2.20;0.50;;;;;;;18.32;53.97;101070.19;5216002;28;20033;-77
2024/04/07 03:52:37;;;;;;;1.70;0.50;;;;;;;18.34;53.16;101070.88;5216646;28;20033;-77
2024/04/07 03:55:09;;;;;;;3.45;0.57;;;;;;;18.28;54.23;101060.94;5217910;28;20056;-76
2024/04/07 03:57:41;;;;;;;0.68;0.30;;;;;;;18.31;54.13;101057.13;5215347;28;20415;-77
2024/04/07 04:00:13;;;;;;;1.30;0.52;;;;;;;18.31;53.90;101043.88;5216312;28;20029;-76
2024/04/07 04:02:45;;;;;;;1.35;0.60;;;;;;;18.34;53.74;101038.22;5215782;28;20036;-76
2024/04/07 04:05:16;;;;;;;1.90;0.52;;;;;;;18.30;53.74;101039.56;5217106;28;21023;-77
2024/04/07 04:07:48;;;;;;;1.42;0.43;;;;;;;18.28;53.59;101039.72;5217813;28;20037;-76
2024/04/07 04:10:20;;;;;;;1.52;0.40;;;;;;;18.29;53.69;101048.50;5215969;28;20033;-77
2024/04/07 04:12:52;;;;;;;1.48;0.52;;;;;;;18.28;53.79;101060.13;5216675;28;20724;-77
2024/04/07 04:15:24;;;;;;;2.72;0.60;;;;;;;18.27;53.89;101069.91;5216740;28;20029;-78
2024/04/07 04:17:56;;;;;;;1.38;0.47;;;;;;;18.12;54.40;101053.91;5215086;28;20750;-77
2024/04/07 04:20:28;;;;;;;1.42;0.55;;;;;;;18.27;53.50;101067.25;5215439;28;20030;-78
2024/04/07 04:23:00;;;;;;;1.05;0.40;;;;;;;18.27;53.81;101074.41;5215059;28;20056;-77
2024/04/07 04:25:32;;;;;;;1.00;0.50;;;;;;;18.27;53.07;101087.66;5215619;28;20040;-77
2024/04/07 04:28:05;;;;;;;2.28;0.60;;;;;;;18.23;53.72;101085.34;5216693;28;20038;-77
2024/04/07 04:30:36;;;;;;;;;;;;;;;18.97;51.71;101087.50;5218248;28;20041;-77
2024/04/07 04:33:08;;;;;;;1.70;0.50;;;;;;;18.22;53.40;101081.06;5215137;28;19929;-76
2024/04/07 04:35:40;;;;;;;1.42;0.40;;;;;;;18.11;54.00;101077.97;5217129;28;20036;-77
2024/04/07 04:38:12;;;;;;;2.15;0.60;;;;;;;18.06;53.14;101053.78;5215414;28;20045;-76
2024/04/07 04:40:54;;;;;;;1.00;0.55;;;;;;;18.23;53.47;101077.38;5221364;28;20055;-76
2024/04/07 04:43:26;;;;;;;1.67;0.80;;;;;;;18.04;53.02;101083.13;5213955;28;20392;-77
2024/04/07 04:46:06;;;;;;;2.28;0.50;;;;;;;18.24;52.27;101091.47;5216947;28;20029;-76
2024/04/07 04:48:38;;;;;;;1.65;0.55;;;;;;;18.13;52.07;101094.50;5214829;28;20140;-76
2024/04/07 04:51:09;;;;;;;1.60;0.40;;;;;;;18.11;52.47;101100.00;5216993;28;20030;-77
2024/04/07 04:53:41;;;;;;;1.25;0.30;;;;;;;18.18;52.73;101114.22;5216244;28;20041;-77
2024/04/07 04:56:13;;;;;;;2.00;0.82;;;;;;;18.11;52.93;101105.31;5215905;28;20387;-78
2024/04/07 04:58:45;;;;;;;1.95;0.60;;;;;;;18.15;52.39;101090.69;5215653;28;20037;-76
2024/04/07 05:01:17;;;;;;;1.08;0.40;;;;;;;18.09;52.86;101094.03;5217140;28;20044;-77
2024/04/07 05:03:49;;;;;;;1.95;0.50;;;;;;;18.08;53.19;101095.03;5218127;28;20454;-76
2024/04/07 05:06:22;;;;;;;1.88;0.70;;;;;;;18.08;53.89;101094.22;5215443;28;20049;-77
2024/04/07 05:08:54;;;;;;;1.08;0.40;;;;;;;18.10;53.33;101100.97;5215492;28;20769;-77
2024/04/07 05:11:25;;;;;;;1.27;0.68;;;;;;;18.00;53.33;101105.69;5217472;28;20029;-77
2024/04/07 05:13:57;;;;;;;2.05;0.70;;;;;;;18.06;53.51;101110.28;5216445;28;20037;-76
2024/04/07 05:16:29;;;;;;;1.33;0.30;;;;;;;18.04;53.87;101120.25;5217012;28;20030;-76
2024/04/07 05:19:04;;;;;;;1.92;0.60;;;;;;;18.04;54.19;101122.91;5213396;28;20041;-78
2024/04/07 05:21:38;;;;;;;1.60;0.50;;;;;;;17.97;54.36;101117.44;5218434;28;20045;-78
2024/04/07 05:24:10;;;;;;;3.95;0.65;;;;;;;18.00;54.19;101116.28;5218472;28;20044;-76
2024/04/07 05:26:41;;;;;;;1.90;0.47;;;;;;;18.01;55.08;101115.28;5214889;28;20230;-76
2024/04/07 05:29:13;;;;;;;2.47;0.70;;;;;;;17.98;54.40;101105.84;5215253;28;20026;-76
2024/04/07 05:31:46;;;;;;;1.08;0.40;;;;;;;17.97;55.16;101122.75;5215604;28;20091;-77
2024/04/07 05:34:17;;;;;;;3.70;0.80;;;;;;;17.98;55.77;101134.19;5213643;28;20166;-76
2024/04/07 05:36:49;;;;;;;2.28;0.60;;;;;;;17.99;55.06;101131.38;5216315;28;20041;-77
2024/04/07 05:39:21;;;;;;;2.67;0.65;;;;;;;18.02;56.42;101139.97;5218297;28;20704;-76
2024/04/07 05:41:53;;;;;;;2.10;0.55;;;;;;;17.97;55.94;101151.09;5218960;28;20033;-78
2024/04/07 05:44:25;;;;;;;2.95;0.60;;;;;;;17.93;56.67;101163.03;5218310;28;20037;-76
2024/04/07 05:46:57;;;;;;;1.70;0.70;;;;;;;17.92;56.71;101151.63;5218123;28;20546;-76
2024/04/07 05:49:32;;;;;;;1.45;0.50;;;;;;;17.96;56.88;101165.34;5217734;28;20044;-76
2024/04/07 05:52:05;;;;;;;2.22;0.70;;;;;;;17.84;57.45;101162.25;5234438;28;20041;-76
2024/04/07 05:54:37;;;;;;;3.13;0.57;;;;;;;17.86;57.56;101162.06;5218679;28;20029;-77
2024/04/07 05:57:09;;;;;;;2.42;0.60;;;;;;;17.87;57.65;101175.13;5217032;28;20560;-76
2024/04/07 05:59:41;;;;;;;1.25;0.35;;;;;;;17.88;57.91;101190.06;5216957;28;20033;-77
2024/04/07 06:02:13;;;;;;;1.90;0.63;;;;;;;17.87;58.30;101187.56;5220948;28;20039;-76
2024/04/07 06:04:44;;;;;;;2.15;0.60;;;;;;;17.85;58.65;101189.56;5221038;28;20041;-76
2024/04/07 06:07:16;;;;;;;1.75;0.55;;;;;;;17.82;58.70;101190.72;5218152;28;20100;-77
2024/04/07 06:09:48;;;;;;;1.77;0.75;;;;;;;17.81;58.71;101189.09;5217907;28;20558;-76
2024/04/07 06:12:20;;;;;;;3.35;0.65;;;;;;;17.78;58.66;101201.84;5219773;28;20426;-76
2024/04/07 06:14:52;;;;;;;1.90;0.73;;;;;;;17.73;59.78;101202.31;5219427;28;20033;-79
2024/04/07 06:17:24;;;;;;;1.70;0.65;;;;;;;17.70;59.57;101208.78;5218734;28;20079;-76
2024/04/07 06:19:56;;;;;;;3.13;1.15;;;;;;;17.71;59.92;101206.94;5217090;28;20042;-78
2024/04/07 06:22:28;;;;;;;2.30;1.05;;;;;;;17.73;60.24;101211.09;5216895;28;20040;-77
2024/04/07 06:25:00;;;;;;;1.90;0.57;;;;;;;17.75;60.19;101208.28;5218159;28;20038;-78
2024/04/07 06:27:32;;;;;;;2.97;0.73;;;;;;;17.72;60.66;101211.25;5220087;28;20391;-75
2024/04/07 06:30:07;;;;;;;2.10;0.43;;;;;;;17.70;60.99;101215.91;5217098;28;20037;-77
2024/04/07 06:32:39;;;;;;;2.38;0.63;;;;;;;17.67;61.22;101203.81;5216762;28;20494;-77
2024/04/07 06:35:10;;;;;;;3.53;0.70;;;;;;;17.71;61.09;101212.25;5216694;28;20029;-75
2024/04/07 06:37:42;;;;;;;2.78;0.82;;;;;;;17.74;60.54;101211.91;5217802;28;20045;-77
2024/04/07 06:40:14;;;;;;;3.25;0.70;;;;;;;17.74;61.37;101202.13;5219305;28;20038;-76
2024/04/07 06:42:46;;;;;;;1.23;0.45;;;;;;;17.82;61.07;101213.75;5221718;28;20485;-75
2024/04/07 06:45:18;;;;;;;2.17;0.60;;;;;;;17.82;61.52;101213.75;5221468;28;20239;-77
2024/04/07 06:47:50;;;;;;;1.95;0.65;;;;;;;17.86;60.93;101218.53;5215828;28;20033;-75
2024/04/07 06:50:22;;;;;;;1.73;0.50;;;;;;;17.90;61.00;101219.84;5219299;28;20045;-76
2024/04/07 06:52:54;;;;;;;3.58;0.70;;;;;;;17.88;61.40;101218.34;5234242;28;20534;-76
2024/04/07 06:55:26;;;;;;;1.90;0.80;;;;;;;17.85;62.12;101216.06;5219299;28;20029;-76
2024/04/07 06:57:57;;;;;;;1.55;0.45;;;;;;;17.93;62.14;101219.53;5217619;28;20038;-76
2024/04/07 07:00:29;;;;;;;4.80;0.90;;;;;;;17.97;62.15;101220.03;5218294;28;20040;-76
2024/04/07 07:03:01;;;;;;;4.38;0.77;;;;;;;17.96;62.04;101227.16;5219564;28;20242;-78
2024/04/07 07:05:33;;;;;;;2.38;0.80;;;;;;;17.95;62.51;101227.31;5220010;28;20493;-77
2024/04/07 07:08:05;;;;;;;3.42;0.82;;;;;;;17.98;62.73;101232.28;5218412;28;20035;-76
2024/04/07 07:10:37;;;;;;;2.63;0.90;;;;;;;18.03;63.23;101235.22;5219552;28;20046;-78
2024/04/07 07:13:09;;;;;;;2.75;0.70;;;;;;;18.01;63.12;101231.94;5218684;28;20044;-76
2024/04/07 07:15:41;;;;;;;4.72;0.85;;;;;;;18.06;63.26;101226.94;5216324;28;20038;-78
2024/04/07 07:18:13;;;;;;;2.95;0.70;;;;;;;18.04;63.70;101244.03;5209941;28;20037;-77
2024/04/07 07:20:45;;;;;;;2.95;1.00;;;;;;;18.05;63.61;101251.00;5217432;28;20403;-78
2024/04/07 07:23:17;;;;;;;3.45;1.00;;;;;;;18.10;63.93;101257.41;5217241;28;20436;-76
2024/04/07 07:25:50;;;;;;;4.55;0.73;;;;;;;18.23;63.90;101256.91;5215442;28;20034;-77
2024/04/07 07:28:22;;;;;;;4.20;1.00;;;;;;;18.36;64.39;101264.31;5213232;28;20021;-78
2024/04/07 07:30:54;;;;;;;2.83;0.90;;;;;;;18.59;63.14;101261.75;5215544;28;20666;-77
2024/04/07 07:33:26;;;;;;;4.22;1.50;;;;;;;18.69;62.82;101267.69;5215730;28;20050;-79
2024/04/07 07:35:58;;;;;;;5.72;0.88;;;;;;;18.86;62.17;101271.09;5215846;28;20048;-76
2024/04/07 07:38:30;;;;;;;3.25;0.98;;;;;;;18.96;60.99;101269.88;5216778;28;20289;-76
2024/04/07 07:41:02;;;;;;;3.05;0.98;;;;;;;19.01;61.25;101269.34;5216826;28;20072;-77
2024/04/07 07:43:34;;;;;;;6.00;1.80;;;;;;;19.14;61.27;101271.47;5222955;28;20048;-76
2024/04/07 07:46:06;;;;;;;5.75;1.38;;;;;;;19.20;60.32;101268.91;5212860;28;20050;-80
2024/04/07 07:48:39;;;;;;;4.22;0.95;;;;;;;19.21;60.01;101267.09;5215044;28;20029;-77
2024/04/07 07:51:12;;;;;;;6.05;1.52;;;;;;;19.17;59.82;101268.47;5214255;28;20038;-76
2024/04/07 07:53:44;;;;;;;3.08;1.15;;;;;;;19.26;59.56;101280.66;5215473;28;20492;-77
2024/04/07 07:56:16;;;;;;;3.95;1.02;;;;;;;19.34;59.15;101282.44;5216127;28;20041;-77
2024/04/07 07:58:47;;;;;;;3.50;1.00;;;;;;;19.31;59.72;101288.94;5212488;28;20111;-77
2024/04/07 08:01:20;;;;;;;3.05;1.05;;;;;;;19.42;59.20;101287.69;5214195;28;20041;-76
2024/04/07 08:03:52;;;;;;;2.75;1.00;;;;;;;19.48;59.23;101288.84;5216899;28;20372;-78
2024/04/07 08:06:25;;;;;;;3.67;1.08;;;;;;;19.61;59.86;101284.56;5216100;28;20028;-77
2024/04/07 08:08:57;;;;;;;2.75;0.85;;;;;;;19.76;59.21;101292.59;5213986;28;20033;-77
2024/04/07 08:11:29;;;;;;;2.85;1.00;;;;;;;19.85;57.69;101306.66;5216129;28;20036;-77
2024/04/07 08:14:01;;;;;;;4.55;1.25;;;;;;;19.87;57.49;101307.31;5214666;28;20029;-77
2024/04/07 08:16:33;;;;;;;3.65;1.58;;;;;;;19.96;57.87;101305.38;5213118;28;20592;-77
2024/04/07 08:19:05;;;;;;;3.40;1.20;;;;;;;20.08;57.76;101293.31;5209824;28;20033;-77
2024/04/07 08:21:38;;;;;;;3.30;1.20;;;;;;;19.99;55.69;101308.50;5214933;28;20044;-77
2024/04/07 08:24:10;;;;;;;2.67;0.70;;;;;;;20.10;55.59;101321.38;5214807;28;20037;-78
2024/04/07 08:26:42;;;;;;;3.67;1.17;;;;;;;20.18;55.88;101312.50;5213499;28;20026;-77
2024/04/07 08:29:14;;;;;;;4.33;1.13;;;;;;;20.27;55.69;101316.75;5213027;28;20036;-77
2024/04/07 08:31:46;;;;;;;3.63;1.40;;;;;;;20.23;54.88;101322.56;5212947;28;20037;-78
2024/04/07 08:34:19;;;;;;;4.07;1.10;;;;;;;20.36;55.02;101310.31;5215546;28;20053;-77
2024/04/07 08:36:51;;;;;;;2.72;0.93;;;;;;;20.44;54.30;101304.06;5214991;28;20041;-77
2024/04/07 08:39:23;;;;;;;2.65;0.85;;;;;;;20.53;53.61;101289.69;5212698;28;20546;-78
2024/04/07 08:41:59;;;;;;;3.17;1.00;;;;;;;20.73;54.16;101300.59;5214276;28;20430;-78
2024/04/07 08:44:33;;;;;;;4.38;1.17;;;;;;;20.59;53.25;101294.28;5214208;28;20034;-78
2024/04/07 08:47:06;;;;;;;3.08;1.08;;;;;;;20.62;53.56;101304.56;5215121;28;20033;-78
2024/04/07 08:49:38;;;;;;;1.50;0.88;;;;;;;20.63;52.76;101305.38;5215723;28;20032;-77
2024/04/07 08:52:11;;;;;;;4.05;0.95;;;;;;;20.62;52.36;101309.06;5212842;28;20049;-80
2024/04/07 08:54:43;;;;;;;2.97;1.08;;;;;;;20.78;52.90;101308.84;5219807;28;20041;-78
2024/04/07 08:57:15;;;;;;;3.83;1.40;;;;;;;20.67;51.09;101313.81;5214290;28;20060;-78
2024/04/07 08:59:50;;;;;;;2.95;1.02;;;;;;;20.58;51.02;101313.94;5217607;28;20029;-78
2024/04/07 09:02:22;;;;;;;2.75;0.70;;;;;;;20.69;51.82;101309.16;5217546;28;20049;-78
2024/04/07 09:04:54;;;;;;;2.93;1.27;;;;;;;20.83;52.31;101324.25;5218109;28;20037;-77
2024/04/07 09:07:26;;;;;;;2.90;1.10;;;;;;;20.95;51.70;101321.94;5212195;28;20076;-78
2024/04/07 09:09:59;;;;;;;3.97;1.07;;;;;;;21.06;51.54;101319.66;5215271;28;20026;-78
2024/04/07 09:12:31;;;;;;;2.95;0.90;;;;;;;21.12;50.97;101326.06;5217644;28;20293;-78
2024/04/07 09:15:03;;;;;;;4.35;0.95;;;;;;;21.23;50.69;101322.06;5218823;28;20113;-78
2024/04/07 09:17:35;;;;;;;3.37;1.17;;;;;;;21.35;50.68;101326.75;5217708;28;20041;-78
2024/04/07 09:20:20;;;;;;;3.50;1.00;;;;;;;21.81;50.73;101318.34;5223602;28;20037;-78
2024/04/07 09:22:52;;;;;;;5.13;0.88;;;;;;;21.53;50.25;101299.66;5229423;28;20291;-78
2024/04/07 09:25:24;;;;;;;2.53;1.00;;;;;;;21.73;49.50;101307.00;5225827;28;20642;-78
2024/04/07 09:27:59;;;;;;;3.67;1.00;;;;;;;21.98;49.27;101312.75;5216681;28;20099;-78
2024/04/07 09:30:31;;;;;;;3.05;0.88;;;;;;;21.99;49.47;101312.56;5219014;28;20040;-78
2024/04/07 09:33:03;;;;;;;3.97;1.40;;;;;;;22.04;48.58;101315.44;5216740;28;20057;-78
2024/04/07 09:35:35;;;;;;;3.42;1.15;;;;;;;22.05;47.97;101316.31;5220842;28;20034;-78
2024/04/07 09:38:07;;;;;;;2.00;0.87;;;;;;;22.23;47.84;101331.84;5215366;28;20032;-78
2024/04/07 09:40:39;;;;;;;3.03;1.27;;;;;;;22.07;44.82;101327.59;5217980;28;20434;-78
2024/04/07 09:43:11;;;;;;;4.10;0.90;;;;;;;22.06;44.89;101316.09;5217171;28;20499;-78
2024/04/07 09:45:48;;;;;;;3.92;0.85;;;;;;;22.22;46.03;101317.66;5217123;28;20030;-78
2024/04/07 09:48:21;;;;;;;2.33;0.70;;;;;;;22.08;45.02;101314.03;5214074;28;20040;-78
2024/04/07 09:51:04;;;;;;;2.65;1.00;;;;;;;22.19;45.40;101322.56;5213221;28;20026;-78
2024/04/07 09:53:45;;;;;;;;;;;;;;;22.89;44.20;101315.34;5219745;28;20564;-77
2024/04/07 09:56:23;;;;;;;2.63;0.88;;;;;;;22.28;44.70;101316.91;5226876;28;20477;-78
2024/04/07 09:58:55;;;;;;;5.78;1.38;;;;;;;22.15;44.10;101310.63;5220353;28;20057;-77
2024/04/07 10:01:28;;;;;;;3.60;1.00;;;;;;;22.19;44.07;101303.88;5220033;28;20037;-77
2024/04/07 10:04:37;;;;;;;2.63;0.70;;;;;;;22.47;44.30;101315.38;5216056;28;20041;-77
2024/04/07 10:07:12;;;;;;;2.17;0.75;;;;;;;22.14;43.64;101312.47;5231687;28;20048;-77
2024/04/07 10:09:45;;;;;;;2.70;0.85;;;;;;;22.18;44.60;101303.06;5217134;28;20391;-77
2024/04/07 10:12:30;;;;;;;2.30;0.80;;;;;;;22.54;43.46;101310.88;5215795;28;20476;-77
2024/04/07 10:15:03;;;;;;;3.92;0.90;;;;;;;22.42;43.15;101306.28;5217636;28;20037;-77
2024/04/07 10:17:37;;;;;;;2.45;0.70;;;;;;;22.48;43.78;101298.31;5216231;28;20391;-78
2024/04/07 10:20:09;;;;;;;3.35;0.80;;;;;;;22.58;41.97;101312.13;5217259;28;20467;-78
2024/04/07 10:22:42;;;;;;;;;;;;;;;23.35;39.93;101304.00;5216204;28;20046;-78
2024/04/07 10:25:16;;;;;;;2.80;0.73;;;;;;;22.72;40.97;101302.31;5214779;28;20367;-78
2024/04/07 10:27:48;;;;;;;2.83;0.70;;;;;;;22.57;39.33;101304.31;5219229;28;20030;-78
2024/04/07 10:30:20;;;;;;;1.97;0.70;;;;;;;22.73;40.46;101300.47;5215621;28;20033;-78
2024/04/07 10:32:52;;;;;;;2.70;0.70;;;;;;;22.79;39.65;101297.00;5215334;28;20734;-78
2024/04/07 10:35:24;;;;;;;4.10;0.80;;;;;;;22.78;38.82;101301.53;5216105;28;20045;-78
2024/04/07 10:37:56;;;;;;;3.33;0.60;;;;;;;22.85;38.42;101301.56;5217429;28;20044;-78
2024/04/07 10:40:30;;;;;;;3.20;0.70;;;;;;;22.90;38.35;101308.97;5215454;28;20025;-78
2024/04/07 10:43:02;;;;;;;2.70;0.77;;;;;;;22.97;39.81;101294.66;5216110;28;20044;-78
2024/04/07 10:45:34;;;;;;;3.13;0.77;;;;;;;22.99;39.35;101297.94;5214669;28;20021;-78
2024/04/07 10:48:09;;;;;;;1.30;0.47;;;;;;;23.27;40.06;101288.97;5219963;28;20042;-77
2024/04/07 10:50:41;;;;;;;2.53;0.93;;;;;;;22.99;39.11;101297.94;5216302;28;20029;-77
2024/04/07 10:53:13;;;;;;;4.77;0.80;;;;;;;23.00;38.60;101304.13;5218888;28;20518;-76
2024/04/07 10:55:45;;;;;;;3.88;1.10;;;;;;;22.91;39.44;101295.44;5220085;28;20347;-76
2024/04/07 10:58:17;;;;;;;2.77;0.80;;;;;;;23.06;39.90;101293.44;5226312;28;20039;-76
2024/04/07 11:00:49;;;;;;;4.60;0.83;;;;;;;23.10;39.36;101301.06;5223915;28;20041;-76
2024/04/07 11:03:21;;;;;;;2.17;0.70;;;;;;;23.24;39.67;101286.69;5224179;28;20622;-77
2024/04/07 11:05:55;;;;;;;1.98;0.75;;;;;;;23.32;40.14;101289.19;5223893;28;20044;-76
2024/04/07 11:08:28;;;;;;;2.15;0.60;;;;;;;23.44;39.82;101279.50;5226198;28;20056;-76
2024/04/07 11:11:02;;;;;;;2.55;0.73;;;;;;;23.48;39.53;101296.78;5224881;28;20041;-76
2024/04/07 11:13:34;;;;;;;2.10;0.80;;;;;;;23.38;38.81;101293.72;5223045;28;20045;-76
2024/04/07 11:16:09;;;;;;;5.22;0.70;;;;;;;23.59;37.97;101294.56;5223826;28;20038;-76
2024/04/07 11:18:42;;;;;;;3.45;0.90;;;;;;;23.70;38.84;101307.34;5222910;28;20064;-76
2024/04/07 11:21:14;;;;;;;2.35;0.60;;;;;;;23.96;38.19;101288.59;5224472;28;20042;-76
2024/04/07 11:23:46;;;;;;;2.80;0.60;;;;;;;24.05;36.91;101297.22;5222143;28;20063;-76
2024/04/07 11:26:18;;;;;;;2.85;1.00;;;;;;;24.05;35.96;101307.94;5238844;28;20288;-76
2024/04/07 11:28:50;;;;;;;1.98;0.60;;;;;;;23.90;35.79;101292.09;5218402;28;20025;-78
2024/04/07 11:31:22;;;;;;;1.83;0.60;;;;;;;24.02;35.50;101301.16;5219965;28;20033;-78
2024/04/07 11:33:54;;;;;;;2.87;0.80;;;;;;;23.90;34.42;101294.78;5221786;28;20088;-76
2024/04/07 11:36:26;;;;;;;7.03;0.80;;;;;;;24.03;34.64;101280.56;5222563;28;20047;-76
2024/04/07 11:38:58;;;;;;;3.20;0.80;;;;;;;23.98;33.82;101286.56;5224016;28;20075;-76
2024/04/07 11:41:30;;;;;;;2.40;0.77;;;;;;;24.16;34.07;101290.44;5222254;28;20060;-77
2024/04/07 11:44:02;;;;;;;3.60;0.50;;;;;;;24.20;33.96;101278.25;5221758;28;20033;-76
2024/04/07 11:46:34;;;;;;;2.83;0.60;;;;;;;24.22;33.67;101282.38;5222044;28;20033;-76
2024/04/07 11:49:06;;;;;;;1.33;0.43;;;;;;;24.22;33.74;101286.91;5222084;28;20029;-76
2024/04/07 11:51:38;;;;;;;2.10;0.65;;;;;;;24.30;33.61;101280.53;5225189;28;20030;-76
2024/04/07 11:54:10;;;;;;;1.63;0.70;;;;;;;24.25;32.88;101281.97;5222851;28;20083;-76